#dbistima — V2PX5 — position and weather

sailwx.info

Track history (hours):
 
Tides and Currents Weather Stations Pressure Air Temp Water Temp Dewpoint Dewpoint Depression Visibility Wind Speed Wind Dir Waves Ship Positions

#dbistima

Last reported at 2017-Jan-25 00:32 UTC. Time now 2017-Jan-25 01:25 UTC.
Position N 53°29' E 014°37'.

MMSI: 304010972.

Date/timePositionNaut miles runAvg speedWind from/ knotsBaromVisibWave heightAir tempDewpointWater temp
2017-Jan-25 00:32N 53°29' E 014°37'0 0.0
2017-Jan-24 23:32N 53°29' E 014°37'0 0.0
2017-Jan-24 22:32N 53°29' E 014°37'0 0.0
2017-Jan-24 21:32N 53°29' E 014°37'0 0.0
2017-Jan-24 20:29N 53°29' E 014°37'0 0.0
2017-Jan-24 19:32N 53°29' E 014°37'0 0.0
2017-Jan-24 18:32N 53°29' E 014°37'0 0.0
2017-Jan-24 17:32N 53°29' E 014°37'0 0.0
2017-Jan-24 16:32N 53°29' E 014°37'0 0.0
2017-Jan-24 15:32N 53°29' E 014°37'0 0.0
2017-Jan-24 14:32N 53°29' E 014°37'0 0.0
2017-Jan-24 13:32N 53°29' E 014°37'0 0.0
2017-Jan-24 12:32N 53°29' E 014°37'0 0.0
2017-Jan-24 11:32N 53°29' E 014°37'0 0.0
2017-Jan-24 10:32N 53°29' E 014°37'0 0.0
2017-Jan-24 09:32N 53°29' E 014°37'0 0.0
2017-Jan-24 08:29N 53°29' E 014°37'0 0.0
2017-Jan-24 07:32N 53°29' E 014°37'0 0.0
2017-Jan-24 06:32N 53°29' E 014°37'0 0.0
2017-Jan-24 05:31N 53°29' E 014°37'0 0.0
2017-Jan-24 04:31N 53°29' E 014°37'0 0.0
2017-Jan-24 03:31N 53°29' E 014°37'0 0.0
2017-Jan-24 02:28N 53°29' E 014°37'0 0.0
2017-Jan-24 01:31N 53°29' E 014°37'0 0.0
2017-Jan-24 00:31N 53°29' E 014°37'0 0.0
2017-Jan-23 23:31N 53°29' E 014°37'0 0.0
2017-Jan-23 22:31N 53°29' E 014°37'0 0.0
2017-Jan-23 21:31N 53°29' E 014°37'0 0.0
2017-Jan-23 20:31N 53°29' E 014°37'0 0.0
2017-Jan-23 19:31N 53°29' E 014°37'0 0.0
2017-Jan-23 18:31N 53°29' E 014°37'0 0.0
2017-Jan-23 17:31N 53°29' E 014°37'0 0.0
2017-Jan-23 16:31N 53°29' E 014°37'0 0.0
2017-Jan-23 15:31N 53°29' E 014°37'0 0.0
2017-Jan-23 14:33N 53°29' E 014°37'0 0.0
2017-Jan-23 13:33N 53°29' E 014°37'0 0.0
2017-Jan-23 12:34N 53°29' E 014°37'0 0.0
2017-Jan-23 11:33N 53°29' E 014°37'0 0.0
2017-Jan-23 10:08N 53°29' E 014°37'2 3.5
2017-Jan-23 09:33N 53°31' E 014°38'97 7.5
2017-Jan-22 20:31N 54°46' E 012°53'8 8.6
2017-Jan-22 19:33N 54°43' E 012°39'9 9.2
2017-Jan-22 18:33N 54°38' E 012°26'9 8.7
2017-Jan-22 17:33N 54°32' E 012°17'10 8.0
2017-Jan-22 16:18N 54°25' E 012°04'7 9.0
2017-Jan-22 15:33N 54°25' E 011°53'12 9.0
2017-Jan-22 14:11N 54°29' E 011°33'6 8.9
2017-Jan-22 13:33N 54°31' E 011°24'9 9.1
2017-Jan-22 12:33N 54°35' E 011°10'9 8.6
2017-Jan-22 11:33N 54°35' E 010°55'9 9.3
2017-Jan-22 10:33N 54°34' E 010°39'35 6.9
2017-Jan-22 05:29N 54°20' E 009°44'7 6.5
2017-Jan-22 04:23N 54°14' E 009°37'6 6.4
2017-Jan-22 03:24N 54°11' E 009°28'11 6.0
2017-Jan-22 01:33N 54°01' E 009°18'9 8.7
2017-Jan-22 00:33N 53°54' E 009°10'3 2.7
2017-Jan-21 23:34N 53°53' E 009°05'7 7.3
2017-Jan-21 22:34N 53°50' E 008°54'7 7.4
2017-Jan-21 21:33N 53°53' E 008°42'8 8.2
2017-Jan-21 20:32N 53°58' E 008°31'9 9.4
2017-Jan-21 19:33N 53°60' E 008°15'1010.2
2017-Jan-21 18:33N 53°58' E 007°58'9 9.3
2017-Jan-21 17:33N 53°55' E 007°43'4510.7
2017-Jan-21 13:20N 53°45' E 006°29'810.8
2017-Jan-21 12:33N 53°43' E 006°15'3110.1
2017-Jan-21 09:33N 53°33' E 005°26'10 9.6
2017-Jan-21 08:33N 53°30' E 005°11'11 9.4
2017-Jan-21 07:23N 53°26' E 004°54'10 8.6
2017-Jan-21 06:16N 53°20' E 004°41'7 9.4
2017-Jan-21 05:29N 53°14' E 004°35'9 9.4
2017-Jan-21 04:33N 53°07' E 004°27'10 9.4
2017-Jan-21 03:32N 52°58' E 004°19'18 9.3
2017-Jan-21 01:33N 52°42' E 004°03'13 9.6
2017-Jan-21 00:14N 52°31' E 003°56'710.4
2017-Jan-20 23:33N 52°24' E 003°53'1111.0
2017-Jan-20 22:33N 52°13' E 003°53'1010.4
2017-Jan-20 21:33N 52°02' E 003°54'8 8.4
2017-Jan-20 20:34N 51°57' E 004°05'0 0.1
2017-Jan-20 19:33N 51°57' E 004°05'0 0.0
2017-Jan-20 18:33N 51°57' E 004°05'0 0.0
2017-Jan-20 17:33N 51°57' E 004°05'0 0.0
2017-Jan-20 16:33N 51°57' E 004°05'0 0.0
2017-Jan-20 15:33N 51°57' E 004°05'0 0.0
2017-Jan-20 14:33N 51°57' E 004°05'0 0.0
2017-Jan-20 13:33N 51°57' E 004°05'0 0.0
2017-Jan-20 12:33N 51°57' E 004°05'0 0.0
2017-Jan-20 11:33N 51°57' E 004°05'0 0.0
2017-Jan-20 10:33N 51°57' E 004°05'0 0.0
2017-Jan-20 09:33N 51°57' E 004°05'0 0.0
2017-Jan-20 08:34N 51°57' E 004°05'0 0.0
2017-Jan-20 07:33N 51°57' E 004°05'0 0.0
2017-Jan-20 06:33N 51°57' E 004°05'0 0.0
2017-Jan-20 05:33N 51°57' E 004°05'0 0.0
2017-Jan-20 04:33N 51°57' E 004°05'0 0.0
2017-Jan-20 03:33N 51°57' E 004°05'0 0.0
2017-Jan-20 02:33N 51°57' E 004°05'0 0.0
2017-Jan-20 01:33N 51°57' E 004°05'0 0.0
2017-Jan-20 00:33N 51°57' E 004°05'0 0.0
2017-Jan-19 23:33N 51°57' E 004°05'0 0.0
2017-Jan-19 22:33N 51°57' E 004°05'0 0.0
2017-Jan-19 21:33N 51°57' E 004°05'0 0.0
2017-Jan-19 20:33N 51°57' E 004°05'0 0.0
2017-Jan-19 19:33N 51°57' E 004°05'0 0.0
2017-Jan-19 18:33N 51°57' E 004°05'0 0.0
2017-Jan-19 17:33N 51°57' E 004°05'5 5.3
2017-Jan-19 16:33N 51°60' E 003°57'10 9.5
2017-Jan-19 15:33N 52°01' E 003°42'1110.9
2017-Jan-19 14:33N 52°08' E 003°28'1211.5
2017-Jan-19 13:31N 52°15' E 003°12'4711.8
2017-Jan-19 09:33N 52°42' E 002°09'1111.0
2017-Jan-19 08:32N 52°47' E 001°53'9 8.8
2017-Jan-19 07:33N 52°52' E 001°41'9 9.4
2017-Jan-19 06:33N 52°56' E 001°27'10 9.6
2017-Jan-19 05:33N 53°00' E 001°13'4310.0
2017-Jan-19 01:17N 53°30' E 000°21'810.7
2017-Jan-19 00:33N 53°33' E 000°09'1312.7
2017-Jan-18 23:33N 53°38' W 000°11'1 0.1
2017-Jan-18 15:29N 53°38' W 000°12'0 0.0
2017-Jan-18 13:05N 53°38' W 000°12'0 0.0
2017-Jan-18 07:32N 53°38' W 000°12'0 0.0
2017-Jan-18 06:29N 53°38' W 000°12'0 0.0
2017-Jan-18 05:29N 53°38' W 000°12'0 0.0
2017-Jan-18 04:32N 53°38' W 000°12'0 0.0
2017-Jan-18 03:32N 53°38' W 000°12'0 0.0
2017-Jan-18 02:32N 53°38' W 000°12'0 0.0
2017-Jan-18 01:32N 53°38' W 000°12'0 0.0
2017-Jan-18 00:32N 53°38' W 000°12'0 0.0
2017-Jan-17 23:32N 53°38' W 000°12'0 0.0
2017-Jan-17 21:21N 53°38' W 000°12'0 0.0
2017-Jan-17 20:31N 53°38' W 000°12'0 0.0
2017-Jan-17 18:28N 53°38' W 000°12'0 0.0
2017-Jan-17 17:33N 53°38' W 000°12'0 0.0
2017-Jan-17 16:30N 53°38' W 000°12'0 0.0
2017-Jan-17 15:33N 53°38' W 000°12'0 0.0
2017-Jan-17 14:33N 53°38' W 000°12'0 0.0
2017-Jan-17 13:33N 53°38' W 000°12'0 0.0
2017-Jan-17 11:33N 53°38' W 000°12'0 0.0
2017-Jan-17 09:17N 53°38' W 000°12'0 0.0
2017-Jan-17 08:32N 53°38' W 000°12'0 0.0
2017-Jan-17 07:29N 53°38' W 000°12'0 0.0
2017-Jan-17 06:33N 53°38' W 000°12'0 0.0
2017-Jan-17 05:32N 53°38' W 000°12'0 0.0
2017-Jan-17 04:33N 53°38' W 000°12'0 0.2
2017-Jan-17 03:33N 53°38' W 000°11'1 1.2
2017-Jan-17 02:33N 53°38' W 000°09'7 7.5
2017-Jan-17 01:34N 53°35' E 000°02'  
Track history (hours):
 
Tides and Currents Weather Stations Pressure Air Temp Water Temp Dewpoint Dewpoint Depression Visibility Wind Speed Wind Dir Waves Ship Positions

#dbistima

Last reported at 2017-Jan-25 00:32 UTC. Time now 2017-Jan-25 01:25 UTC.
Position N 53°29' E 014°37'.

MMSI: 304010972.

Date/timePositionNaut miles runAvg speedWind from/ knotsBaromVisibWave heightAir tempDewpointWater temp
2017-Jan-25 00:32N 53°29' E 014°37'0 0.0
2017-Jan-24 23:32N 53°29' E 014°37'0 0.0
2017-Jan-24 22:32N 53°29' E 014°37'0 0.0
2017-Jan-24 21:32N 53°29' E 014°37'0 0.0
2017-Jan-24 20:29N 53°29' E 014°37'0 0.0
2017-Jan-24 19:32N 53°29' E 014°37'0 0.0
2017-Jan-24 18:32N 53°29' E 014°37'0 0.0
2017-Jan-24 17:32N 53°29' E 014°37'0 0.0
2017-Jan-24 16:32N 53°29' E 014°37'0 0.0
2017-Jan-24 15:32N 53°29' E 014°37'0 0.0
2017-Jan-24 14:32N 53°29' E 014°37'0 0.0
2017-Jan-24 13:32N 53°29' E 014°37'0 0.0
2017-Jan-24 12:32N 53°29' E 014°37'0 0.0
2017-Jan-24 11:32N 53°29' E 014°37'0 0.0
2017-Jan-24 10:32N 53°29' E 014°37'0 0.0
2017-Jan-24 09:32N 53°29' E 014°37'0 0.0
2017-Jan-24 08:29N 53°29' E 014°37'0 0.0
2017-Jan-24 07:32N 53°29' E 014°37'0 0.0
2017-Jan-24 06:32N 53°29' E 014°37'0 0.0
2017-Jan-24 05:31N 53°29' E 014°37'0 0.0
2017-Jan-24 04:31N 53°29' E 014°37'0 0.0
2017-Jan-24 03:31N 53°29' E 014°37'0 0.0
2017-Jan-24 02:28N 53°29' E 014°37'0 0.0
2017-Jan-24 01:31N 53°29' E 014°37'0 0.0
2017-Jan-24 00:31N 53°29' E 014°37'0 0.0
2017-Jan-23 23:31N 53°29' E 014°37'0 0.0
2017-Jan-23 22:31N 53°29' E 014°37'0 0.0
2017-Jan-23 21:31N 53°29' E 014°37'0 0.0
2017-Jan-23 20:31N 53°29' E 014°37'0 0.0
2017-Jan-23 19:31N 53°29' E 014°37'0 0.0
2017-Jan-23 18:31N 53°29' E 014°37'0 0.0
2017-Jan-23 17:31N 53°29' E 014°37'0 0.0
2017-Jan-23 16:31N 53°29' E 014°37'0 0.0
2017-Jan-23 15:31N 53°29' E 014°37'0 0.0
2017-Jan-23 14:33N 53°29' E 014°37'0 0.0
2017-Jan-23 13:33N 53°29' E 014°37'0 0.0
2017-Jan-23 12:34N 53°29' E 014°37'0 0.0
2017-Jan-23 11:33N 53°29' E 014°37'0 0.0
2017-Jan-23 10:08N 53°29' E 014°37'2 3.5
2017-Jan-23 09:33N 53°31' E 014°38'97 7.5
2017-Jan-22 20:31N 54°46' E 012°53'8 8.6
2017-Jan-22 19:33N 54°43' E 012°39'9 9.2
2017-Jan-22 18:33N 54°38' E 012°26'9 8.7
2017-Jan-22 17:33N 54°32' E 012°17'10 8.0
2017-Jan-22 16:18N 54°25' E 012°04'7 9.0
2017-Jan-22 15:33N 54°25' E 011°53'12 9.0
2017-Jan-22 14:11N 54°29' E 011°33'6 8.9
2017-Jan-22 13:33N 54°31' E 011°24'9 9.1
2017-Jan-22 12:33N 54°35' E 011°10'9 8.6
2017-Jan-22 11:33N 54°35' E 010°55'9 9.3
2017-Jan-22 10:33N 54°34' E 010°39'35 6.9
2017-Jan-22 05:29N 54°20' E 009°44'7 6.5
2017-Jan-22 04:23N 54°14' E 009°37'6 6.4
2017-Jan-22 03:24N 54°11' E 009°28'11 6.0
2017-Jan-22 01:33N 54°01' E 009°18'9 8.7
2017-Jan-22 00:33N 53°54' E 009°10'3 2.7
2017-Jan-21 23:34N 53°53' E 009°05'7 7.3
2017-Jan-21 22:34N 53°50' E 008°54'7 7.4
2017-Jan-21 21:33N 53°53' E 008°42'8 8.2
2017-Jan-21 20:32N 53°58' E 008°31'9 9.4
2017-Jan-21 19:33N 53°60' E 008°15'1010.2
2017-Jan-21 18:33N 53°58' E 007°58'9 9.3
2017-Jan-21 17:33N 53°55' E 007°43'4510.7
2017-Jan-21 13:20N 53°45' E 006°29'810.8
2017-Jan-21 12:33N 53°43' E 006°15'3110.1
2017-Jan-21 09:33N 53°33' E 005°26'10 9.6
2017-Jan-21 08:33N 53°30' E 005°11'11 9.4
2017-Jan-21 07:23N 53°26' E 004°54'10 8.6
2017-Jan-21 06:16N 53°20' E 004°41'7 9.4
2017-Jan-21 05:29N 53°14' E 004°35'9 9.4
2017-Jan-21 04:33N 53°07' E 004°27'10 9.4
2017-Jan-21 03:32N 52°58' E 004°19'18 9.3
2017-Jan-21 01:33N 52°42' E 004°03'13 9.6
2017-Jan-21 00:14N 52°31' E 003°56'710.4
2017-Jan-20 23:33N 52°24' E 003°53'1111.0
2017-Jan-20 22:33N 52°13' E 003°53'1010.4
2017-Jan-20 21:33N 52°02' E 003°54'8 8.4
2017-Jan-20 20:34N 51°57' E 004°05'0 0.1
2017-Jan-20 19:33N 51°57' E 004°05'0 0.0
2017-Jan-20 18:33N 51°57' E 004°05'0 0.0
2017-Jan-20 17:33N 51°57' E 004°05'0 0.0
2017-Jan-20 16:33N 51°57' E 004°05'0 0.0
2017-Jan-20 15:33N 51°57' E 004°05'0 0.0
2017-Jan-20 14:33N 51°57' E 004°05'0 0.0
2017-Jan-20 13:33N 51°57' E 004°05'0 0.0
2017-Jan-20 12:33N 51°57' E 004°05'0 0.0
2017-Jan-20 11:33N 51°57' E 004°05'0 0.0
2017-Jan-20 10:33N 51°57' E 004°05'0 0.0
2017-Jan-20 09:33N 51°57' E 004°05'0 0.0
2017-Jan-20 08:34N 51°57' E 004°05'0 0.0
2017-Jan-20 07:33N 51°57' E 004°05'0 0.0
2017-Jan-20 06:33N 51°57' E 004°05'0 0.0
2017-Jan-20 05:33N 51°57' E 004°05'0 0.0
2017-Jan-20 04:33N 51°57' E 004°05'0 0.0
2017-Jan-20 03:33N 51°57' E 004°05'0 0.0
2017-Jan-20 02:33N 51°57' E 004°05'0 0.0
2017-Jan-20 01:33N 51°57' E 004°05'0 0.0
2017-Jan-20 00:33N 51°57' E 004°05'0 0.0
2017-Jan-19 23:33N 51°57' E 004°05'0 0.0
2017-Jan-19 22:33N 51°57' E 004°05'0 0.0
2017-Jan-19 21:33N 51°57' E 004°05'0 0.0
2017-Jan-19 20:33N 51°57' E 004°05'0 0.0
2017-Jan-19 19:33N 51°57' E 004°05'0 0.0
2017-Jan-19 18:33N 51°57' E 004°05'0 0.0
2017-Jan-19 17:33N 51°57' E 004°05'5 5.3
2017-Jan-19 16:33N 51°60' E 003°57'10 9.5
2017-Jan-19 15:33N 52°01' E 003°42'1110.9
2017-Jan-19 14:33N 52°08' E 003°28'1211.5
2017-Jan-19 13:31N 52°15' E 003°12'4711.8
2017-Jan-19 09:33N 52°42' E 002°09'1111.0
2017-Jan-19 08:32N 52°47' E 001°53'9 8.8
2017-Jan-19 07:33N 52°52' E 001°41'9 9.4
2017-Jan-19 06:33N 52°56' E 001°27'10 9.6
2017-Jan-19 05:33N 53°00' E 001°13'4310.0
2017-Jan-19 01:17N 53°30' E 000°21'810.7
2017-Jan-19 00:33N 53°33' E 000°09'1312.7
2017-Jan-18 23:33N 53°38' W 000°11'1 0.1
2017-Jan-18 15:29N 53°38' W 000°12'0 0.0
2017-Jan-18 13:05N 53°38' W 000°12'0 0.0
2017-Jan-18 07:32N 53°38' W 000°12'0 0.0
2017-Jan-18 06:29N 53°38' W 000°12'0 0.0
2017-Jan-18 05:29N 53°38' W 000°12'0 0.0
2017-Jan-18 04:32N 53°38' W 000°12'0 0.0
2017-Jan-18 03:32N 53°38' W 000°12'0 0.0
2017-Jan-18 02:32N 53°38' W 000°12'0 0.0
2017-Jan-18 01:32N 53°38' W 000°12'0 0.0
2017-Jan-18 00:32N 53°38' W 000°12'0 0.0
2017-Jan-17 23:32N 53°38' W 000°12'0 0.0
2017-Jan-17 21:21N 53°38' W 000°12'0 0.0
2017-Jan-17 20:31N 53°38' W 000°12'0 0.0
2017-Jan-17 18:28N 53°38' W 000°12'0 0.0
2017-Jan-17 17:33N 53°38' W 000°12'0 0.0
2017-Jan-17 16:30N 53°38' W 000°12'0 0.0
2017-Jan-17 15:33N 53°38' W 000°12'0 0.0
2017-Jan-17 14:33N 53°38' W 000°12'0 0.0
2017-Jan-17 13:33N 53°38' W 000°12'0 0.0
2017-Jan-17 11:33N 53°38' W 000°12'0 0.0
2017-Jan-17 09:17N 53°38' W 000°12'0 0.0
2017-Jan-17 08:32N 53°38' W 000°12'0 0.0
2017-Jan-17 07:29N 53°38' W 000°12'0 0.0
2017-Jan-17 06:33N 53°38' W 000°12'0 0.0
2017-Jan-17 05:32N 53°38' W 000°12'0 0.0
2017-Jan-17 04:33N 53°38' W 000°12'0 0.2
2017-Jan-17 03:33N 53°38' W 000°11'1 1.2
2017-Jan-17 02:33N 53°38' W 000°09'7 7.5
2017-Jan-17 01:34N 53°35' E 000°02'  

Dump ship's entire track history